South Riding, Virginia
Current Conditions -  °F | °C
As of 11:52 PM on Saturday 20 Dec 2014 (Local Time) from KIAD Reporting Station
Overcast Overcast  
Wind Chill: 31°   Ceiling: 7500
Heat Index: 31°   Visibility: 10mi
Dew Point: 25°   Wind: 0mph
Humidity: 79%   Direction: NA
Pressure: 30.3"   Gusts: NA
Location:  38.8963°N, 77.5216°W
Report Text: KIAD 210452Z 00000KT 10SM OVC075 M01/M04 A3030 RMK AO2 SLP262 T10061039 400171067
Loading
Personal Weather Stations






























Interactive Weather Map New forecast layout! Learn more

10-Day Weather Forecast

Advertisements
Track Severe Weather on mobile